Time;durP1;ratioP1;P1;durP2;ratioP2;P2;SDS_P1;SDS_P2;PMS_P1;PMS_P2;Temp;Humidity;BMP_temperature;BMP_pressure;BME280_temperature;BME280_humidity;BME280_pressure;Samples;Min_cycle;Max_cycle;Signal;HPM_P1;HPM_P2
2022/08/20 00:01:05;;;;;;;;;;;;;;;24.16;73.82;98998.25;4390291;32;33730;-79
2022/08/20 00:03:35;;;;;;;;;;;;;;;24.36;72.49;98994.00;4392017;32;33940;-80
2022/08/20 00:06:07;;;;;;;;;;;;;;;24.11;73.75;99005.72;4380752;32;33810;-79
2022/08/20 00:08:43;;;;;;;;;;;;;;;24.22;73.39;99006.53;4370976;32;34172;-80
2022/08/20 00:11:13;;;;;;;;;;;;;;;24.09;73.79;99013.81;4375241;32;33759;-79
2022/08/20 00:13:50;;;;;;;;;;;;;;;24.18;73.05;99014.88;4372022;32;33998;-79
2022/08/20 00:16:23;;;;;;;;;;;;;;;24.07;73.38;99010.44;4389587;32;33031;-80
2022/08/20 00:18:51;;;;;;;;;;;;;;;24.15;72.98;99021.25;4385633;32;33969;-81
2022/08/20 00:21:24;;;;;;;;;;;;;;;23.99;73.27;99013.72;4386158;32;33606;-80
2022/08/20 00:23:53;;;;;;;;;;;;;;;24.05;73.36;99021.16;4386964;32;34290;-80
2022/08/20 00:26:24;;;;;;;;;;;;;;;24.06;73.32;99021.97;4391434;32;33758;-81
2022/08/20 00:28:58;;;;;;;;;;;;;;;24.03;73.28;99019.59;4385457;32;34553;-81
2022/08/20 00:31:28;;;;;;;;;;;;;;;24.12;72.74;99028.62;4385531;32;33631;-79
2022/08/20 00:33:57;;;;;;;;;;;;;;;23.91;73.58;99025.87;4385957;32;33756;-79
2022/08/20 00:36:29;;;;;;;;;;;;;;;24.05;73.43;99029.09;4385663;32;33795;-80
2022/08/20 00:39:00;;;;;;;;;;;;;;;24.01;73.64;99026.81;4391088;32;33807;-81
2022/08/20 00:41:31;;;;;;;;;;;;;;;24.20;72.85;99027.03;4389757;32;34295;-80
2022/08/20 00:44:05;;;;;;;;;;;;;;;23.97;73.51;99030.66;4386804;32;34059;-80
2022/08/20 00:46:37;;;;;;;;;;;;;;;23.88;74.70;99028.75;4385695;32;33423;-80
2022/08/20 00:49:07;;;;;;;;;;;;;;;23.84;74.36;99022.84;4389060;32;33687;-79
2022/08/20 00:51:46;;;;;;;;;;;;;;;23.91;73.88;99020.56;4391399;32;33986;-81
2022/08/20 00:54:17;;;;;;;;;;;;;;;24.11;72.88;99011.03;4389409;32;34430;-81
2022/08/20 00:56:49;;;;;;;;;;;;;;;24.16;72.27;99004.41;4385202;32;32408;-81
2022/08/20 00:59:26;;;;;;;;;;;;;;;23.97;73.30;98998.88;4386097;32;34175;-79
2022/08/20 01:01:56;;;;;;;;;;;;;;;24.06;73.20;99003.44;4391187;32;33896;-81
2022/08/20 01:04:25;;;;;;;;;;;;;;;24.08;72.46;98998.03;4389806;32;33124;-80
2022/08/20 01:07:00;;;;;;;;;;;;;;;23.68;74.17;98990.53;4385649;32;32680;-81
2022/08/20 01:09:30;;;;;;;;;;;;;;;24.01;72.01;98981.78;4385186;32;34654;-81
2022/08/20 01:12:19;;;;;;;;;;;;;;;24.05;71.04;98992.00;4387162;32;33846;-79
2022/08/20 01:14:52;;;;;;;;;;;;;;;23.99;71.21;99007.53;4386056;32;34217;-79
2022/08/20 01:17:22;;;;;;;;;;;;;;;23.70;72.05;99010.66;4390971;32;33440;-80
2022/08/20 01:19:53;;;;;;;;;;;;;;;23.29;74.21;99006.75;4371806;32;34049;-81
2022/08/20 01:25:13;;;;;;;;;;;;;;;23.22;74.14;98987.03;4385307;32;34209;-79
2022/08/20 01:27:43;;;;;;;;;;;;;;;23.06;74.31;98984.72;4388562;32;33157;-80
2022/08/20 01:30:12;;;;;;;;;;;;;;;22.82;75.90;98981.25;4390957;32;35388;-80
2022/08/20 01:32:41;;;;;;;;;;;;;;;23.08;74.72;98987.25;4386947;32;33805;-80
2022/08/20 01:35:12;;;;;;;;;;;;;;;22.83;75.38;98975.81;4385377;32;34205;-79
2022/08/20 01:37:40;;;;;;;;;;;;;;;22.47;76.75;98967.06;4385353;32;34017;-79
2022/08/20 01:40:11;;;;;;;;;;;;;;;22.46;77.64;98964.53;4390647;32;33493;-80
2022/08/20 01:43:07;;;;;;;;;;;;;;;22.63;76.49;98963.28;4390202;32;34659;-79
2022/08/20 01:45:40;;;;;;;;;;;;;;;22.61;76.77;98973.94;4385301;32;34556;-80
2022/08/20 01:48:10;;;;;;;;;;;;;;;22.53;77.02;98966.59;4385014;32;33407;-80
2022/08/20 01:50:46;;;;;;;;;;;;;;;22.61;76.48;98966.03;4386279;32;33740;-79
2022/08/20 01:53:15;;;;;;;;;;;;;;;22.54;77.83;98972.72;4390484;32;35064;-81
2022/08/20 01:55:51;;;;;;;;;;;;;;;22.51;77.37;98981.72;4380211;32;33572;-79
2022/08/20 01:58:24;;;;;;;;;;;;;;;22.83;76.28;98969.69;4369819;32;33600;-80
2022/08/20 02:00:52;;;;;;;;;;;;;;;22.81;76.32;98964.56;4384870;32;34816;-80
2022/08/20 02:03:23;;;;;;;;;;;;;;;22.84;75.74;98968.75;4386229;32;34654;-81
2022/08/20 02:05:53;;;;;;;;;;;;;;;22.92;75.02;98956.63;4390362;32;34239;-80
2022/08/20 02:08:28;;;;;;;;;;;;;;;23.03;74.37;98952.34;4384965;32;34076;-80
2022/08/20 02:10:56;;;;;;;;;;;;;;;22.88;75.18;98941.97;4385367;32;33911;-81
2022/08/20 02:13:29;;;;;;;;;;;;;;;22.86;75.55;98946.53;4385112;32;33565;-80
2022/08/20 02:15:57;;;;;;;;;;;;;;;23.20;73.32;98938.69;4385507;32;33903;-81
2022/08/20 02:18:27;;;;;;;;;;;;;;;23.03;74.33;98949.69;4389281;32;33177;-79
2022/08/20 02:20:57;;;;;;;;;;;;;;;23.11;74.93;98958.75;4375969;32;34866;-79
2022/08/20 02:23:28;;;;;;;;;;;;;;;23.06;74.45;98960.91;4388447;32;34650;-81
2022/08/20 02:25:58;;;;;;;;;;;;;;;23.17;74.57;98954.78;4385120;32;34380;-81
2022/08/20 02:28:34;;;;;;;;;;;;;;;23.40;73.40;98947.72;4389655;32;32874;-79
2022/08/20 02:31:07;;;;;;;;;;;;;;;23.35;73.15;98952.53;4385531;32;33353;-80
2022/08/20 02:33:37;;;;;;;;;;;;;;;23.46;72.72;98962.25;4388815;32;34926;-80
2022/08/20 02:36:06;;;;;;;;;;;;;;;23.42;72.70;98978.41;4384570;32;34247;-80
2022/08/20 02:38:37;;;;;;;;;;;;;;;23.46;72.78;98973.69;4384130;32;33264;-81
2022/08/20 02:41:06;;;;;;;;;;;;;;;23.53;72.42;98982.84;4384628;32;32858;-79
2022/08/20 02:43:38;;;;;;;;;;;;;;;23.46;72.90;98978.16;4371181;32;33911;-81
2022/08/20 02:46:09;;;;;;;;;;;;;;;23.69;71.37;98974.56;4369324;32;35077;-80
2022/08/20 02:48:39;;;;;;;;;;;;;;;23.55;71.70;98972.97;4370281;32;34255;-80
2022/08/20 02:51:08;;;;;;;;;;;;;;;23.52;72.01;98965.28;4389749;32;34152;-80
2022/08/20 02:53:42;;;;;;;;;;;;;;;23.48;72.04;98977.06;4385940;32;34717;-79
2022/08/20 02:56:11;;;;;;;;;;;;;;;23.56;71.83;98973.84;4386580;32;34018;-81
2022/08/20 02:58:41;;;;;;;;;;;;;;;23.45;71.93;98987.91;4372493;32;32894;-80
2022/08/20 03:01:11;;;;;;;;;;;;;;;23.54;71.61;98989.00;4386921;32;36455;-81
2022/08/20 03:03:44;;;;;;;;;;;;;;;23.54;71.85;98996.94;4392143;32;34187;-80
2022/08/20 03:06:15;;;;;;;;;;;;;;;23.60;71.92;99007.03;4387138;32;35224;-81
2022/08/20 03:08:48;;;;;;;;;;;;;;;23.73;71.79;99017.53;4386011;32;33508;-80
2022/08/20 03:11:16;;;;;;;;;;;;;;;23.79;71.32;99052.34;4391809;32;33752;-80
2022/08/20 03:13:47;;;;;;;;;;;;;;;23.51;72.16;99100.41;4392105;32;34914;-80
2022/08/20 03:16:16;;;;;;;;;;;;;;;23.39;72.83;99092.47;4391458;32;34297;-81
2022/08/20 03:18:46;;;;;;;;;;;;;;;23.24;73.81;99061.84;4384938;32;33471;-80
2022/08/20 03:21:19;;;;;;;;;;;;;;;23.51;70.93;99063.34;4374769;32;34489;-80
2022/08/20 03:23:48;;;;;;;;;;;;;;;23.43;70.68;99059.47;4371470;32;34094;-79
2022/08/20 03:26:16;;;;;;;;;;;;;;;23.27;71.53;99066.94;4376665;32;34723;-81
2022/08/20 03:28:48;;;;;;;;;;;;;;;23.18;72.02;99083.50;4385554;32;33687;-80
2022/08/20 03:31:19;;;;;;;;;;;;;;;23.03;73.29;99093.41;4386460;32;33849;-79
2022/08/20 03:33:53;;;;;;;;;;;;;;;23.01;73.55;99090.03;4387777;32;33781;-80
2022/08/20 03:36:22;;;;;;;;;;;;;;;23.08;72.71;99079.84;4386853;32;33843;-80
2022/08/20 03:38:57;;;;;;;;;;;;;;;22.76;74.32;99085.66;4391137;32;33633;-79
2022/08/20 03:41:27;;;;;;;;;;;;;;;22.78;74.56;99092.56;4385774;32;34260;-78
2022/08/20 03:43:56;;;;;;;;;;;;;;;22.53;76.44;99079.41;4387065;32;34515;-78
2022/08/20 03:46:26;;;;;;;;;;;;;;;22.91;73.87;99084.56;4386179;32;33495;-79
2022/08/20 03:48:55;;;;;;;;;;;;;;;22.63;75.32;99090.19;4389777;32;33459;-79
2022/08/20 03:51:28;;;;;;;;;;;;;;;22.53;75.80;99087.34;4372038;32;33693;-78
2022/08/20 03:53:59;;;;;;;;;;;;;;;22.66;75.33;99079.37;4372668;32;35198;-79
2022/08/20 03:56:28;;;;;;;;;;;;;;;22.41;76.07;99069.75;4371237;32;33739;-79
2022/08/20 03:58:57;;;;;;;;;;;;;;;22.47;76.16;99064.00;4358727;32;32718;-79
2022/08/20 04:01:27;;;;;;;;;;;;;;;22.58;75.64;99077.28;4391570;32;34187;-79
2022/08/20 04:04:14;;;;;;;;;;;;;;;22.66;76.58;99085.50;4389998;32;34729;-79
2022/08/20 04:06:49;;;;;;;;;;;;;;;22.78;75.48;99089.91;4388852;32;35414;-81
2022/08/20 04:09:18;;;;;;;;;;;;;;;23.15;73.11;99089.03;4344538;32;1334649;-78
2022/08/20 04:11:59;;;;;;;;;;;;;;;22.79;74.32;99082.81;4388260;32;33949;-80
2022/08/20 04:14:32;;;;;;;;;;;;;;;22.90;73.62;99069.63;4391649;32;33636;-79
2022/08/20 04:17:08;;;;;;;;;;;;;;;22.91;74.03;99047.53;4386035;32;33953;-79
2022/08/20 04:19:37;;;;;;;;;;;;;;;22.47;76.14;99030.50;4386332;32;33687;-79
2022/08/20 04:22:06;;;;;;;;;;;;;;;22.56;75.57;99021.88;4387483;32;34763;-79
2022/08/20 04:24:36;;;;;;;;;;;;;;;22.57;75.71;99025.37;4386880;32;34925;-78
2022/08/20 04:27:08;;;;;;;;;;;;;;;22.88;74.57;99029.25;4390996;32;34327;-78
2022/08/20 04:29:37;;;;;;;;;;;;;;;22.92;74.81;99038.63;4370690;32;33419;-79
2022/08/20 04:32:14;;;;;;;;;;;;;;;22.98;74.47;99042.66;4371080;32;33747;-80
2022/08/20 04:34:45;;;;;;;;;;;;;;;22.91;75.40;99041.41;4370909;32;34873;-81
2022/08/20 04:37:22;;;;;;;;;;;;;;;23.19;74.04;99027.78;4378306;32;33916;-80
2022/08/20 04:42:36;;;;;;;;;;;;;;;23.13;72.15;99040.66;4388036;32;35027;-78
2022/08/20 04:45:07;;;;;;;;;;;;;;;23.05;73.39;99050.97;4386330;32;34729;-80
2022/08/20 04:47:40;;;;;;;;;;;;;;;23.12;73.17;99049.53;4385692;32;34115;-78
2022/08/20 04:50:09;;;;;;;;;;;;;;;23.33;71.88;99025.91;4391307;32;33891;-79
2022/08/20 04:52:38;;;;;;;;;;;;;;;23.21;71.62;99027.69;4390880;32;33732;-79
2022/08/20 04:55:09;;;;;;;;;;;;;;;23.04;73.05;99051.94;4385763;32;34812;-79
2022/08/20 04:57:41;;;;;;;;;;;;;;;23.10;73.76;99052.31;4385625;32;34425;-79
2022/08/20 05:00:11;;;;;;;;;;;;;;;23.18;72.97;99057.03;4387317;32;33237;-81
2022/08/20 05:02:44;;;;;;;;;;;;;;;23.33;73.10;99063.78;4391242;32;35446;-78
2022/08/20 05:05:13;;;;;;;;;;;;;;;23.39;72.69;99070.44;4386245;32;33649;-81
2022/08/20 05:07:45;;;;;;;;;;;;;;;23.50;72.84;99065.16;4385127;32;33845;-79
2022/08/20 05:10:14;;;;;;;;;;;;;;;23.58;72.75;99049.53;4385889;32;33278;-80
2022/08/20 05:12:43;;;;;;;;;;;;;;;23.61;73.19;99054.59;4390936;32;33771;-80
2022/08/20 05:15:24;;;;;;;;;;;;;;;23.85;71.62;99059.00;4390991;32;33923;-78
2022/08/20 05:18:01;;;;;;;;;;;;;;;23.85;71.76;99051.88;4384439;32;34354;-78
2022/08/20 05:20:30;;;;;;;;;;;;;;;24.04;70.09;99053.91;4386490;32;33287;-79
2022/08/20 05:22:59;;;;;;;;;;;;;;;24.08;70.02;99053.66;4386746;32;33992;-79
2022/08/20 05:25:32;;;;;;;;;;;;;;;24.06;70.80;99054.63;4391142;32;33643;-79
2022/08/20 05:28:01;;;;;;;;;;;;;;;24.13;69.86;99054.16;4385162;32;34775;-78
2022/08/20 05:30:32;;;;;;;;;;;;;;;24.03;70.56;99048.72;4386312;32;33443;-79
2022/08/20 05:33:03;;;;;;;;;;;;;;;24.24;70.70;99048.84;4389405;32;33838;-79
2022/08/20 05:35:34;;;;;;;;;;;;;;;24.32;69.27;99045.56;4385764;32;34293;-78
2022/08/20 05:38:03;;;;;;;;;;;;;;;24.22;70.46;99030.41;4385842;32;33450;-79
2022/08/20 05:40:36;;;;;;;;;;;;;;;24.21;70.38;99030.50;4377745;32;33264;-79
2022/08/20 05:43:05;;;;;;;;;;;;;;;24.34;69.07;99030.38;4387542;32;33793;-79
2022/08/20 05:45:36;;;;;;;;;;;;;;;24.53;67.36;99032.44;4385232;32;34071;-80
2022/08/20 05:48:09;;;;;;;;;;;;;;;24.46;69.14;99040.03;4378929;32;33738;-80
2022/08/20 05:50:41;;;;;;;;;;;;;;;24.49;68.59;99037.97;4375524;32;33683;-81
2022/08/20 05:53:10;;;;;;;;;;;;;;;24.49;67.93;99039.78;4384302;32;34061;-79
2022/08/20 05:55:39;;;;;;;;;;;;;;;24.34;68.24;99043.66;4385125;32;34666;-79
2022/08/20 05:58:08;;;;;;;;;;;;;;;24.21;68.89;99044.62;4384741;32;34570;-81
2022/08/20 06:00:37;;;;;;;;;;;;;;;24.24;68.79;99051.50;4389738;32;33801;-80
2022/08/20 06:05:54;;;;;;;;;;;;;;;24.27;69.68;99043.28;4384943;32;34328;-79
2022/08/20 06:08:26;;;;;;;;;;;;;;;24.37;69.05;99046.88;4372796;32;33593;-81
2022/08/20 06:10:54;;;;;;;;;;;;;;;24.36;68.44;99028.47;4372096;32;33366;-79
2022/08/20 06:13:23;;;;;;;;;;;;;;;24.65;67.38;99024.31;4375214;32;33706;-81
2022/08/20 06:15:52;;;;;;;;;;;;;;;24.41;69.34;99045.66;4369698;32;34812;-79
2022/08/20 06:18:23;;;;;;;;;;;;;;;24.30;69.04;99044.84;4371282;32;33432;-81
2022/08/20 06:20:56;;;;;;;;;;;;;;;24.27;68.28;99032.69;4375207;32;33745;-79
2022/08/20 06:23:27;;;;;;;;;;;;;;;24.38;69.43;99053.00;4375192;32;34669;-79
2022/08/20 06:26:18;;;;;;;;;;;;;;;24.41;70.50;99047.50;4375276;32;33918;-80
2022/08/20 06:29:00;;;;;;;;;;;;;;;24.57;69.46;99055.06;4371203;32;34603;-79
2022/08/20 06:31:29;;;;;;;;;;;;;;;24.42;70.48;99059.75;4373339;32;33312;-80
2022/08/20 06:34:07;;;;;;;;;;;;;;;24.37;70.88;99069.91;4372084;32;33423;-79
2022/08/20 06:36:36;;;;;;;;;;;;;;;24.51;68.84;99067.00;4372262;32;33755;-79
2022/08/20 06:39:04;;;;;;;;;;;;;;;24.50;67.21;99078.59;4378594;32;33532;-81
2022/08/20 06:41:34;;;;;;;;;;;;;;;24.32;67.34;99094.13;4387606;32;33900;-79
2022/08/20 06:44:06;;;;;;;;;;;;;;;23.92;69.51;99104.38;4388023;32;33833;-79
2022/08/20 06:46:38;;;;;;;;;;;;;;;23.75;70.81;99093.28;4386475;32;34013;-80
2022/08/20 06:49:08;;;;;;;;;;;;;;;23.68;71.98;99089.41;4392098;32;33854;-81
2022/08/20 06:51:39;;;;;;;;;;;;;;;23.82;71.73;99097.16;4388355;32;33847;-79
2022/08/20 06:54:09;;;;;;;;;;;;;;;23.66;72.29;99103.72;4386856;32;34111;-79
2022/08/20 06:56:37;;;;;;;;;;;;;;;23.85;72.18;99128.69;4386257;32;33788;-81
2022/08/20 06:59:12;;;;;;;;;;;;;;;23.93;71.62;99141.34;4383781;32;34224;-79
2022/08/20 07:01:48;;;;;;;;;;;;;;;24.27;69.41;99141.38;4376530;32;33455;-80
2022/08/20 07:04:18;;;;;;;;;;;;;;;24.12;70.55;99129.31;4386580;32;33237;-80
2022/08/20 07:06:53;;;;;;;;;;;;;;;24.34;68.07;99128.47;4386340;32;34392;-79
2022/08/20 07:09:29;;;;;;;;;;;;;;;24.10;69.07;99147.16;4386349;32;33741;-81
2022/08/20 07:11:57;;;;;;;;;;;;;;;23.99;69.37;99138.22;4389174;32;34100;-80
2022/08/20 07:14:27;;;;;;;;;;;;;;;23.98;69.60;99146.28;4391739;32;33677;-78
2022/08/20 07:16:56;;;;;;;;;;;;;;;24.03;69.45;99126.41;4385885;32;34026;-79
2022/08/20 07:19:34;;;;;;;;;;;;;;;24.02;70.28;99140.63;4386744;32;34511;-81
2022/08/20 07:22:03;;;;;;;;;;;;;;;23.87;70.67;99135.66;4387705;32;34129;-78
2022/08/20 07:24:32;;;;;;;;;;;;;;;23.83;71.07;99135.91;4391798;32;34356;-79
2022/08/20 07:27:06;;;;;;;;;;;;;;;23.61;71.83;99144.62;4378401;32;33764;-81
2022/08/20 07:32:38;;;;;;;;;;;;;;;23.43;73.80;99160.06;4386260;32;33460;-78
2022/08/20 07:35:21;;;;;;;;;;;;;;;23.53;73.29;99173.47;4375131;32;34183;-78
2022/08/20 07:37:53;;;;;;;;;;;;;;;23.60;73.52;99184.44;4386312;32;33949;-80
2022/08/20 07:40:22;;;;;;;;;;;;;;;23.65;73.34;99192.87;4391077;32;34522;-78
2022/08/20 07:42:54;;;;;;;;;;;;;;;23.80;72.76;99199.72;4391691;32;34213;-78
2022/08/20 07:45:23;;;;;;;;;;;;;;;23.79;73.04;99208.63;4386342;32;34162;-77
2022/08/20 07:47:52;;;;;;;;;;;;;;;23.88;72.87;99216.84;4386321;32;34452;-78
2022/08/20 07:50:23;;;;;;;;;;;;;;;23.81;73.38;99219.94;4389774;32;34231;-77
2022/08/20 07:52:54;;;;;;;;;;;;;;;23.77;72.74;99226.41;4390997;32;33095;-78
2022/08/20 07:55:30;;;;;;;;;;;;;;;23.77;72.37;99242.31;4385757;32;34079;-79
2022/08/20 07:58:01;;;;;;;;;;;;;;;23.66;71.39;99265.25;4383897;32;33676;-80
2022/08/20 08:00:35;;;;;;;;;;;;;;;23.76;71.50;99288.31;4386951;32;32947;-79
2022/08/20 08:03:04;;;;;;;;;;;;;;;23.65;72.43;99293.50;4391100;32;33817;-81
2022/08/20 08:05:41;;;;;;;;;;;;;;;23.58;71.26;99289.63;4377525;32;33920;-79
2022/08/20 08:08:11;;;;;;;;;;;;;;;23.75;69.89;99291.06;4370349;32;34080;-78
2022/08/20 08:10:40;;;;;;;;;;;;;;;23.74;69.12;99274.34;4379534;32;34451;-78
2022/08/20 08:13:13;;;;;;;;;;;;;;;23.70;68.13;99259.59;4386600;32;33098;-79
2022/08/20 08:15:43;;;;;;;;;;;;;;;23.29;69.89;99267.94;4390642;32;33741;-78
2022/08/20 08:18:15;;;;;;;;;;;;;;;23.31;69.97;99279.25;4385827;32;33997;-80
2022/08/20 08:20:45;;;;;;;;;;;;;;;23.34;70.71;99277.25;4379409;32;34069;-78
2022/08/20 08:23:14;;;;;;;;;;;;;;;23.34;71.38;99261.37;4385605;32;33210;-77
2022/08/20 08:26:05;;;;;;;;;;;;;;;23.25;71.84;99262.03;4370848;32;34023;-79
2022/08/20 08:28:47;;;;;;;;;;;;;;;23.31;72.37;99258.09;4376550;32;33663;-79
2022/08/20 08:31:18;;;;;;;;;;;;;;;23.30;72.40;99270.47;4382439;32;33965;-78
2022/08/20 08:33:49;;;;;;;;;;;;;;;23.19;73.16;99262.47;4387179;32;32932;-78
2022/08/20 08:36:21;;;;;;;;;;;;;;;23.04;74.09;99264.41;4386341;32;34137;-81
2022/08/20 08:38:53;;;;;;;;;;;;;;;22.73;75.48;99271.00;4386439;32;34008;-78
2022/08/20 08:41:30;;;;;;;;;;;;;;;22.61;76.39;99261.28;4397221;32;33842;-79
2022/08/20 08:44:00;;;;;;;;;;;;;;;23.06;74.12;99240.50;4391143;32;32902;-77
2022/08/20 08:46:37;;;;;;;;;;;;;;;23.09;72.76;99204.06;4385766;32;34857;-77
2022/08/20 08:49:06;;;;;;;;;;;;;;;23.03;73.15;99195.72;4386340;32;35052;-78
2022/08/20 08:51:40;;;;;;;;;;;;;;;22.60;74.19;99185.56;4387006;32;33784;-77
2022/08/20 08:54:09;;;;;;;;;;;;;;;21.81;78.00;99190.09;4391097;32;34217;-78
2022/08/20 08:56:39;;;;;;;;;;;;;;;21.81;78.75;99198.03;4384861;32;32924;-79
2022/08/20 08:59:09;;;;;;;;;;;;;;;22.01;76.68;99212.50;4371082;32;33144;-78
2022/08/20 09:01:41;;;;;;;;;;;;;;;22.10;76.16;99196.88;4380922;32;34902;-79
2022/08/20 09:04:24;;;;;;;;;;;;;;;21.86;77.66;99186.19;4384762;32;33298;-78
2022/08/20 09:06:57;;;;;;;;;;;;;;;21.96;77.21;99178.50;4386465;32;33728;-80
2022/08/20 09:09:26;;;;;;;;;;;;;;;22.13;77.25;99178.19;4385328;32;35661;-80
2022/08/20 09:12:02;;;;;;;;;;;;;;;22.02;76.82;99179.88;4384465;32;34637;-81
2022/08/20 09:14:31;;;;;;;;;;;;;;;21.74;78.60;99194.94;4384841;32;32865;-80
2022/08/20 09:17:01;;;;;;;;;;;;;;;21.53;81.82;99221.00;4390147;32;34620;-79
2022/08/20 09:19:30;;;;;;;;;;;;;;;21.86;80.79;99243.44;4384675;32;35075;-79
2022/08/20 09:22:02;;;;;;;;;;;;;;;21.68;82.11;99245.53;4389230;32;34048;-80
2022/08/20 09:24:30;;;;;;;;;;;;;;;21.80;81.68;99247.34;4384905;32;32910;-79
2022/08/20 09:27:00;;;;;;;;;;;;;;;21.72;82.09;99255.78;4382914;32;34459;-79
2022/08/20 09:29:29;;;;;;;;;;;;;;;21.84;81.90;99251.50;4387615;32;35141;-79
2022/08/20 09:32:03;;;;;;;;;;;;;;;21.74;82.34;99247.75;4388571;32;33709;-81
2022/08/20 09:34:35;;;;;;;;;;;;;;;21.87;80.84;99234.59;4385216;32;33246;-80
2022/08/20 09:37:06;;;;;;;;;;;;;;;21.66;81.53;99227.16;4386079;32;33636;-80
2022/08/20 09:39:35;;;;;;;;;;;;;;;21.68;80.85;99225.25;4387664;32;35041;-80
2022/08/20 09:42:08;;;;;;;;;;;;;;;21.27;82.27;99239.34;4384906;32;33754;-79
2022/08/20 09:44:36;;;;;;;;;;;;;;;21.68;81.13;99249.00;4385792;32;33506;-79
2022/08/20 09:47:07;;;;;;;;;;;;;;;21.67;81.15;99249.97;4384717;32;33792;-80
2022/08/20 09:49:36;;;;;;;;;;;;;;;21.50;81.91;99237.88;4384152;32;34390;-81
2022/08/20 09:52:20;;;;;;;;;;;;;;;21.98;79.16;99225.94;4390558;32;34246;-81
2022/08/20 09:54:48;;;;;;;;;;;;;;;21.92;78.22;99208.72;4385365;32;32463;-79
2022/08/20 09:57:20;;;;;;;;;;;;;;;21.85;78.88;99194.25;4385701;32;33424;-81
2022/08/20 09:59:51;;;;;;;;;;;;;;;21.29;82.13;99165.38;4385021;32;34064;-80
2022/08/20 10:02:20;;;;;;;;;;;;;;;21.35;82.15;99148.28;4385621;32;34069;-80
2022/08/20 10:04:49;;;;;;;;;;;;;;;21.48;81.68;99123.66;4392635;32;34126;-80
2022/08/20 10:07:20;;;;;;;;;;;;;;;21.56;82.08;99123.13;4387107;32;33542;-79
2022/08/20 10:09:49;;;;;;;;;;;;;;;21.71;79.82;99119.44;4387093;32;33810;-80
2022/08/20 10:12:21;;;;;;;;;;;;;;;21.62;80.04;99109.50;4389820;32;34507;-79
2022/08/20 10:14:51;;;;;;;;;;;;;;;21.43;82.05;99090.59;4392525;32;32567;-80
2022/08/20 10:17:31;;;;;;;;;;;;;;;21.69;81.34;99076.44;4392455;32;34436;-81
2022/08/20 10:20:04;;;;;;;;;;;;;;;21.55;84.32;99070.44;4387118;32;35008;-81
2022/08/20 10:22:34;;;;;;;;;;;;;;;21.76;81.74;99061.03;4389805;32;34523;-83
2022/08/20 10:25:09;;;;;;;;;;;;;;;21.57;82.03;99063.25;4387705;32;33062;-82
2022/08/20 10:27:40;;;;;;;;;;;;;;;21.63;80.19;99068.97;4391958;32;34154;-83
2022/08/20 10:30:09;;;;;;;;;;;;;;;21.54;80.84;99066.97;4386875;32;34715;-83
2022/08/20 10:32:39;;;;;;;;;;;;;;;21.64;81.95;99083.00;4388193;32;34114;-83
2022/08/20 10:35:11;;;;;;;;;;;;;;;21.91;80.36;99094.28;4387466;32;32514;-84
2022/08/20 10:37:46;;;;;;;;;;;;;;;22.08;83.19;99116.06;4387314;32;34482;-84
2022/08/20 10:40:15;;;;;;;;;;;;;;;22.48;80.76;99158.22;4392238;32;34846;-84
2022/08/20 10:42:44;;;;;;;;;;;;;;;22.82;75.57;99169.84;4388512;32;33977;-85
2022/08/20 10:45:16;;;;;;;;;;;;;;;22.79;78.67;99178.03;4387090;32;32969;-85
2022/08/20 10:47:49;;;;;;;;;;;;;;;23.08;77.64;99183.03;4387718;32;33841;-84
2022/08/20 10:50:18;;;;;;;;;;;;;;;23.51;74.64;99169.25;4392271;32;34054;-83
2022/08/20 10:52:48;;;;;;;;;;;;;;;23.73;69.86;99173.78;4390116;32;33929;-83
2022/08/20 10:55:18;;;;;;;;;;;;;;;23.65;74.21;99179.66;4380433;32;33239;-81
2022/08/20 10:57:48;;;;;;;;;;;;;;;23.70;74.30;99180.13;4379657;32;34578;-84
2022/08/20 11:00:18;;;;;;;;;;;;;;;24.05;73.94;99189.91;4384198;32;34357;-83
2022/08/20 11:02:48;;;;;;;;;;;;;;;24.33;72.76;99193.91;4390596;32;35305;-82
2022/08/20 11:05:17;;;;;;;;;;;;;;;24.34;68.44;99202.69;4385154;32;33349;-82
2022/08/20 11:07:46;;;;;;;;;;;;;;;24.45;69.38;99200.91;4383026;32;33902;-83
2022/08/20 11:10:26;;;;;;;;;;;;;;;24.60;68.90;99198.88;4379648;32;34292;-83
2022/08/20 11:13:01;;;;;;;;;;;;;;;24.69;69.49;99198.16;4379457;32;34243;-82
2022/08/20 11:15:29;;;;;;;;;;;;;;;24.98;69.75;99188.81;4386044;32;33003;-83
2022/08/20 11:18:05;;;;;;;;;;;;;;;24.83;67.44;99198.84;4375120;32;33607;-82
2022/08/20 11:20:38;;;;;;;;;;;;;;;24.97;65.24;99197.75;4376976;32;33861;-82
2022/08/20 11:23:07;;;;;;;;;;;;;;;25.11;63.89;99198.31;4381347;32;34180;-83
2022/08/20 11:25:44;;;;;;;;;;;;;;;24.96;65.59;99193.37;4386888;32;33198;-83
2022/08/20 11:28:12;;;;;;;;;;;;;;;25.03;64.84;99195.44;4383159;32;35868;-83
2022/08/20 11:30:45;;;;;;;;;;;;;;;25.20;63.96;99209.16;4380347;32;35447;-84
2022/08/20 11:33:13;;;;;;;;;;;;;;;24.67;65.82;99210.69;4385107;32;33865;-83
2022/08/20 11:35:42;;;;;;;;;;;;;;;25.21;64.09;99203.75;4381079;32;33162;-83
2022/08/20 11:38:17;;;;;;;;;;;;;;;24.91;69.68;99191.97;4378005;32;34239;-84
2022/08/20 11:40:48;;;;;;;;;;;;;;;25.13;68.58;99190.22;4375546;32;33998;-83
2022/08/20 11:43:16;;;;;;;;;;;;;;;25.43;68.71;99189.53;4389921;32;34240;-83
2022/08/20 11:45:52;;;;;;;;;;;;;;;25.33;68.11;99185.97;4377865;32;34949;-83
2022/08/20 11:48:22;;;;;;;;;;;;;;;25.64;66.13;99173.62;4381349;32;33241;-83
2022/08/20 11:50:53;;;;;;;;;;;;;;;25.31;66.19;99177.28;4385878;32;33915;-83
2022/08/20 11:53:24;;;;;;;;;;;;;;;25.41;65.11;99162.25;4382538;32;33570;-83
2022/08/20 11:55:55;;;;;;;;;;;;;;;25.65;65.69;99169.16;4380176;32;33171;-83
2022/08/20 11:58:26;;;;;;;;;;;;;;;26.17;62.40;99162.94;4379624;32;34511;-83
2022/08/20 12:00:56;;;;;;;;;;;;;;;26.31;61.54;99163.53;4379093;32;34605;-83
2022/08/20 12:03:25;;;;;;;;;;;;;;;26.13;59.81;99156.19;4380019;32;33851;-84
2022/08/20 12:06:02;;;;;;;;;;;;;;;26.00;62.73;99160.03;4379369;32;33319;-83
2022/08/20 12:08:35;;;;;;;;;;;;;;;26.06;58.33;99155.03;4378845;32;34078;-83
2022/08/20 12:11:04;;;;;;;;;;;;;;;25.51;62.01;99152.53;4383579;32;34187;-83
2022/08/20 12:13:34;;;;;;;;;;;;;;;25.90;58.85;99146.69;4380240;32;35614;-84
2022/08/20 12:16:17;;;;;;;;;;;;;;;25.66;62.57;99149.56;4379540;32;32797;-83
2022/08/20 12:18:46;;;;;;;;;;;;;;;25.43;61.06;99138.25;4379199;32;34271;-84
2022/08/20 12:21:19;;;;;;;;;;;;;;;25.83;60.29;99133.06;4382088;32;33833;-83
2022/08/20 12:23:47;;;;;;;;;;;;;;;26.18;58.95;99129.19;4388144;32;33904;-83
2022/08/20 12:26:22;;;;;;;;;;;;;;;26.09;58.44;99135.31;4379939;32;33443;-84
2022/08/20 12:28:53;;;;;;;;;;;;;;;25.86;59.31;99127.50;4380773;32;34223;-82
2022/08/20 12:31:29;;;;;;;;;;;;;;;26.00;57.91;99121.03;4381203;32;34677;-83
2022/08/20 12:34:01;;;;;;;;;;;;;;;25.65;60.01;99106.22;4379716;32;33459;-84
2022/08/20 12:36:30;;;;;;;;;;;;;;;25.39;62.44;99115.56;4374593;32;34245;-82
2022/08/20 12:38:58;;;;;;;;;;;;;;;25.92;60.65;99115.50;4381497;32;34425;-83
2022/08/20 12:41:31;;;;;;;;;;;;;;;25.46;60.38;99100.78;4380797;32;33455;-82
2022/08/20 12:44:08;;;;;;;;;;;;;;;25.70;59.97;99098.72;4379917;32;33601;-82
2022/08/20 12:46:41;;;;;;;;;;;;;;;25.65;59.67;99090.28;4367243;32;32926;-82
2022/08/20 12:49:11;;;;;;;;;;;;;;;25.40;61.19;99085.41;4385766;32;35097;-83
2022/08/20 12:51:39;;;;;;;;;;;;;;;25.60;60.18;99079.22;4374637;32;34327;-81
2022/08/20 12:54:08;;;;;;;;;;;;;;;25.58;60.46;99067.88;4378739;32;34685;-82
2022/08/20 12:56:37;;;;;;;;;;;;;;;25.50;61.58;99070.38;4377070;32;33003;-83
2022/08/20 12:59:10;;;;;;;;;;;;;;;25.54;61.74;99061.16;4378012;32;34154;-82
2022/08/20 13:01:38;;;;;;;;;;;;;;;25.55;62.05;99061.03;4385071;32;33496;-82
2022/08/20 13:04:11;;;;;;;;;;;;;;;25.54;62.36;99056.69;4388946;32;34878;-83
2022/08/20 13:06:40;;;;;;;;;;;;;;;25.50;63.15;99054.44;4379420;32;33670;-83
2022/08/20 13:09:08;;;;;;;;;;;;;;;25.51;64.13;99048.97;4383152;32;33721;-83
2022/08/20 13:11:38;;;;;;;;;;;;;;;25.76;63.37;99055.69;4390289;32;33853;-83
2022/08/20 13:14:11;;;;;;;;;;;;;;;26.05;61.97;99052.34;4382605;32;34642;-83
2022/08/20 13:16:42;;;;;;;;;;;;;;;26.08;61.22;99060.03;4382915;32;35087;-84
2022/08/20 13:19:15;;;;;;;;;;;;;;;26.08;62.53;99064.53;4382019;32;33419;-82
2022/08/20 13:21:44;;;;;;;;;;;;;;;26.13;61.60;99063.13;4386249;32;33925;-82